sensor_id;sensor_type;location;lat;lon;timestamp;P1;durP1;ratioP1;P2;durP2;ratioP2
29728;SDS011;20055;51.498;11.960;2022-12-20T00:01:24;34.15;;;15.48;;
29728;SDS011;20055;51.498;11.960;2022-12-20T00:03:52;35.20;;;15.70;;
29728;SDS011;20055;51.498;11.960;2022-12-20T00:06:20;32.00;;;15.55;;
29728;SDS011;20055;51.498;11.960;2022-12-20T00:08:46;35.90;;;14.95;;
29728;SDS011;20055;51.498;11.960;2022-12-20T00:11:17;34.53;;;15.13;;
29728;SDS011;20055;51.498;11.960;2022-12-20T00:13:45;30.58;;;14.73;;
29728;SDS011;20055;51.498;11.960;2022-12-20T00:16:12;31.52;;;14.85;;
29728;SDS011;20055;51.498;11.960;2022-12-20T00:18:39;31.50;;;14.68;;
29728;SDS011;20055;51.498;11.960;2022-12-20T00:21:07;32.22;;;14.38;;
29728;SDS011;20055;51.498;11.960;2022-12-20T00:23:34;33.42;;;13.98;;
29728;SDS011;20055;51.498;11.960;2022-12-20T00:26:14;31.48;;;13.43;;
29728;SDS011;20055;51.498;11.960;2022-12-20T00:28:43;33.03;;;14.73;;
29728;SDS011;20055;51.498;11.960;2022-12-20T00:31:10;30.33;;;14.82;;
29728;SDS011;20055;51.498;11.960;2022-12-20T00:33:37;30.75;;;14.05;;
29728;SDS011;20055;51.498;11.960;2022-12-20T00:36:05;41.10;;;15.88;;
29728;SDS011;20055;51.498;11.960;2022-12-20T00:38:32;32.72;;;15.55;;
29728;SDS011;20055;51.498;11.960;2022-12-20T00:41:02;39.05;;;17.35;;
29728;SDS011;20055;51.498;11.960;2022-12-20T00:43:36;41.92;;;16.48;;
29728;SDS011;20055;51.498;11.960;2022-12-20T00:46:03;39.47;;;18.58;;
29728;SDS011;20055;51.498;11.960;2022-12-20T00:48:31;41.38;;;17.60;;
29728;SDS011;20055;51.498;11.960;2022-12-20T00:50:59;39.10;;;18.25;;
29728;SDS011;20055;51.498;11.960;2022-12-20T00:53:30;42.00;;;17.30;;
29728;SDS011;20055;51.498;11.960;2022-12-20T00:55:57;43.40;;;18.80;;
29728;SDS011;20055;51.498;11.960;2022-12-20T00:58:24;41.88;;;18.63;;
29728;SDS011;20055;51.498;11.960;2022-12-20T01:00:50;39.03;;;17.20;;
29728;SDS011;20055;51.498;11.960;2022-12-20T01:03:17;46.35;;;17.60;;
29728;SDS011;20055;51.498;11.960;2022-12-20T01:05:57;38.05;;;16.60;;
29728;SDS011;20055;51.498;11.960;2022-12-20T01:08:24;36.72;;;17.27;;
29728;SDS011;20055;51.498;11.960;2022-12-20T01:11:05;36.80;;;17.08;;
29728;SDS011;20055;51.498;11.960;2022-12-20T01:13:33;33.92;;;16.42;;
29728;SDS011;20055;51.498;11.960;2022-12-20T01:16:04;34.22;;;16.05;;
29728;SDS011;20055;51.498;11.960;2022-12-20T01:18:31;37.60;;;15.80;;
29728;SDS011;20055;51.498;11.960;2022-12-20T01:21:05;37.20;;;16.00;;
29728;SDS011;20055;51.498;11.960;2022-12-20T01:23:33;37.50;;;15.18;;
29728;SDS011;20055;51.498;11.960;2022-12-20T01:26:00;36.58;;;16.10;;
29728;SDS011;20055;51.498;11.960;2022-12-20T01:28:27;40.67;;;15.90;;
29728;SDS011;20055;51.498;11.960;2022-12-20T01:30:54;35.60;;;16.92;;
29728;SDS011;20055;51.498;11.960;2022-12-20T01:33:21;39.30;;;16.60;;
29728;SDS011;20055;51.498;11.960;2022-12-20T01:35:54;28.58;;;15.30;;
29728;SDS011;20055;51.498;11.960;2022-12-20T01:38:21;42.08;;;16.05;;
29728;SDS011;20055;51.498;11.960;2022-12-20T01:40:47;35.03;;;16.02;;
29728;SDS011;20055;51.498;11.960;2022-12-20T01:43:14;35.75;;;16.13;;
29728;SDS011;20055;51.498;11.960;2022-12-20T01:45:43;35.42;;;15.35;;
29728;SDS011;20055;51.498;11.960;2022-12-20T01:48:09;29.00;;;14.00;;
29728;SDS011;20055;51.498;11.960;2022-12-20T01:50:36;28.85;;;14.48;;
29728;SDS011;20055;51.498;11.960;2022-12-20T01:53:03;28.85;;;14.00;;
29728;SDS011;20055;51.498;11.960;2022-12-20T01:55:30;32.70;;;15.85;;
29728;SDS011;20055;51.498;11.960;2022-12-20T01:58:18;30.05;;;14.57;;
29728;SDS011;20055;51.498;11.960;2022-12-20T02:00:44;38.05;;;14.48;;
29728;SDS011;20055;51.498;11.960;2022-12-20T02:03:12;33.28;;;15.27;;
29728;SDS011;20055;51.498;11.960;2022-12-20T02:05:42;34.92;;;15.27;;
29728;SDS011;20055;51.498;11.960;2022-12-20T02:08:10;35.25;;;14.82;;
29728;SDS011;20055;51.498;11.960;2022-12-20T02:10:48;31.20;;;14.85;;
29728;SDS011;20055;51.498;11.960;2022-12-20T02:13:31;37.30;;;15.98;;
29728;SDS011;20055;51.498;11.960;2022-12-20T02:16:03;31.15;;;15.18;;
29728;SDS011;20055;51.498;11.960;2022-12-20T02:23:45;31.95;;;14.82;;
29728;SDS011;20055;51.498;11.960;2022-12-20T02:31:38;31.52;;;14.25;;
29728;SDS011;20055;51.498;11.960;2022-12-20T02:34:06;34.65;;;16.02;;
29728;SDS011;20055;51.498;11.960;2022-12-20T02:36:35;30.67;;;14.80;;
29728;SDS011;20055;51.498;11.960;2022-12-20T02:39:01;32.97;;;15.65;;
29728;SDS011;20055;51.498;11.960;2022-12-20T02:41:33;34.42;;;15.63;;
29728;SDS011;20055;51.498;11.960;2022-12-20T02:44:06;33.53;;;16.73;;
29728;SDS011;20055;51.498;11.960;2022-12-20T02:46:53;33.78;;;15.48;;
29728;SDS011;20055;51.498;11.960;2022-12-20T02:49:22;35.65;;;16.25;;
29728;SDS011;20055;51.498;11.960;2022-12-20T02:51:51;33.13;;;14.50;;
29728;SDS011;20055;51.498;11.960;2022-12-20T02:54:18;39.55;;;15.43;;
29728;SDS011;20055;51.498;11.960;2022-12-20T02:56:54;33.75;;;15.82;;
29728;SDS011;20055;51.498;11.960;2022-12-20T02:59:28;27.30;;;13.02;;
29728;SDS011;20055;51.498;11.960;2022-12-20T03:01:55;28.45;;;14.35;;
29728;SDS011;20055;51.498;11.960;2022-12-20T03:04:24;28.02;;;14.13;;
29728;SDS011;20055;51.498;11.960;2022-12-20T03:09:19;32.45;;;14.43;;
29728;SDS011;20055;51.498;11.960;2022-12-20T03:11:46;30.80;;;15.93;;
29728;SDS011;20055;51.498;11.960;2022-12-20T03:14:12;29.45;;;14.65;;
29728;SDS011;20055;51.498;11.960;2022-12-20T03:16:39;30.55;;;13.70;;
29728;SDS011;20055;51.498;11.960;2022-12-20T03:19:06;33.15;;;15.38;;
29728;SDS011;20055;51.498;11.960;2022-12-20T03:21:32;30.60;;;13.93;;
29728;SDS011;20055;51.498;11.960;2022-12-20T03:23:59;32.47;;;16.10;;
29728;SDS011;20055;51.498;11.960;2022-12-20T03:26:26;35.35;;;14.85;;
29728;SDS011;20055;51.498;11.960;2022-12-20T03:31:25;28.90;;;13.45;;
29728;SDS011;20055;51.498;11.960;2022-12-20T03:33:53;30.00;;;14.52;;
29728;SDS011;20055;51.498;11.960;2022-12-20T03:36:21;27.13;;;13.77;;
29728;SDS011;20055;51.498;11.960;2022-12-20T03:38:51;33.60;;;14.68;;
29728;SDS011;20055;51.498;11.960;2022-12-20T03:41:18;28.98;;;13.07;;
29728;SDS011;20055;51.498;11.960;2022-12-20T03:43:46;31.25;;;13.77;;
29728;SDS011;20055;51.498;11.960;2022-12-20T03:46:13;26.88;;;13.57;;
29728;SDS011;20055;51.498;11.960;2022-12-20T03:48:40;26.95;;;13.18;;
29728;SDS011;20055;51.498;11.960;2022-12-20T03:51:08;29.90;;;14.00;;
29728;SDS011;20055;51.498;11.960;2022-12-20T03:53:35;32.38;;;13.18;;
29728;SDS011;20055;51.498;11.960;2022-12-20T03:56:02;28.52;;;13.85;;
29728;SDS011;20055;51.498;11.960;2022-12-20T03:58:28;27.83;;;13.65;;
29728;SDS011;20055;51.498;11.960;2022-12-20T04:00:56;26.88;;;12.85;;
29728;SDS011;20055;51.498;11.960;2022-12-20T04:03:36;30.98;;;14.13;;
29728;SDS011;20055;51.498;11.960;2022-12-20T04:06:03;29.67;;;13.10;;
29728;SDS011;20055;51.498;11.960;2022-12-20T04:08:30;34.90;;;13.93;;
29728;SDS011;20055;51.498;11.960;2022-12-20T04:10:57;32.55;;;14.40;;
29728;SDS011;20055;51.498;11.960;2022-12-20T04:14:00;32.50;;;14.23;;
29728;SDS011;20055;51.498;11.960;2022-12-20T04:16:28;28.95;;;14.30;;
29728;SDS011;20055;51.498;11.960;2022-12-20T04:18:55;32.33;;;14.63;;
29728;SDS011;20055;51.498;11.960;2022-12-20T04:21:23;29.70;;;13.50;;
29728;SDS011;20055;51.498;11.960;2022-12-20T04:23:52;32.45;;;14.00;;
29728;SDS011;20055;51.498;11.960;2022-12-20T04:26:19;29.08;;;14.25;;
29728;SDS011;20055;51.498;11.960;2022-12-20T04:28:46;31.42;;;13.52;;
29728;SDS011;20055;51.498;11.960;2022-12-20T04:31:12;29.35;;;13.65;;
29728;SDS011;20055;51.498;11.960;2022-12-20T04:33:39;32.22;;;14.77;;
29728;SDS011;20055;51.498;11.960;2022-12-20T04:36:07;32.70;;;14.93;;
29728;SDS011;20055;51.498;11.960;2022-12-20T04:38:34;26.98;;;14.10;;
29728;SDS011;20055;51.498;11.960;2022-12-20T04:41:00;30.38;;;13.55;;
29728;SDS011;20055;51.498;11.960;2022-12-20T04:43:35;32.80;;;14.98;;
29728;SDS011;20055;51.498;11.960;2022-12-20T04:46:03;28.58;;;12.98;;
29728;SDS011;20055;51.498;11.960;2022-12-20T04:48:30;30.83;;;14.25;;
29728;SDS011;20055;51.498;11.960;2022-12-20T04:50:57;28.63;;;13.43;;
29728;SDS011;20055;51.498;11.960;2022-12-20T04:53:24;29.02;;;12.75;;
29728;SDS011;20055;51.498;11.960;2022-12-20T04:56:09;30.15;;;14.18;;
29728;SDS011;20055;51.498;11.960;2022-12-20T04:58:36;33.47;;;15.07;;
29728;SDS011;20055;51.498;11.960;2022-12-20T05:01:07;33.88;;;14.57;;
29728;SDS011;20055;51.498;11.960;2022-12-20T05:03:42;26.90;;;14.85;;
29728;SDS011;20055;51.498;11.960;2022-12-20T05:06:08;29.85;;;13.73;;
29728;SDS011;20055;51.498;11.960;2022-12-20T05:08:36;28.80;;;13.30;;
29728;SDS011;20055;51.498;11.960;2022-12-20T05:11:03;31.70;;;13.55;;
29728;SDS011;20055;51.498;11.960;2022-12-20T05:13:31;35.08;;;14.32;;
29728;SDS011;20055;51.498;11.960;2022-12-20T05:15:58;29.50;;;14.02;;
29728;SDS011;20055;51.498;11.960;2022-12-20T05:18:28;34.45;;;13.95;;
29728;SDS011;20055;51.498;11.960;2022-12-20T05:21:00;26.42;;;13.93;;
29728;SDS011;20055;51.498;11.960;2022-12-20T05:23:48;29.52;;;12.95;;
29728;SDS011;20055;51.498;11.960;2022-12-20T05:26:46;27.98;;;13.40;;
29728;SDS011;20055;51.498;11.960;2022-12-20T05:29:14;25.00;;;13.20;;
29728;SDS011;20055;51.498;11.960;2022-12-20T05:31:41;31.77;;;13.73;;
29728;SDS011;20055;51.498;11.960;2022-12-20T05:34:08;31.63;;;14.20;;
29728;SDS011;20055;51.498;11.960;2022-12-20T05:36:36;41.80;;;14.90;;
29728;SDS011;20055;51.498;11.960;2022-12-20T05:39:04;35.45;;;14.77;;
29728;SDS011;20055;51.498;11.960;2022-12-20T05:41:34;34.28;;;14.73;;
29728;SDS011;20055;51.498;11.960;2022-12-20T05:44:01;27.77;;;14.07;;
29728;SDS011;20055;51.498;11.960;2022-12-20T05:46:31;31.15;;;12.48;;
29728;SDS011;20055;51.498;11.960;2022-12-20T05:51:28;33.47;;;14.13;;
29728;SDS011;20055;51.498;11.960;2022-12-20T05:54:02;25.25;;;13.30;;
29728;SDS011;20055;51.498;11.960;2022-12-20T05:56:40;32.95;;;14.80;;
29728;SDS011;20055;51.498;11.960;2022-12-20T05:59:06;30.98;;;13.95;;
29728;SDS011;20055;51.498;11.960;2022-12-20T06:01:35;29.70;;;14.15;;
29728;SDS011;20055;51.498;11.960;2022-12-20T06:04:02;31.48;;;16.45;;
29728;SDS011;20055;51.498;11.960;2022-12-20T06:06:29;28.10;;;13.77;;
29728;SDS011;20055;51.498;11.960;2022-12-20T06:08:55;29.42;;;14.63;;
29728;SDS011;20055;51.498;11.960;2022-12-20T06:11:42;33.30;;;15.48;;
29728;SDS011;20055;51.498;11.960;2022-12-20T06:14:12;30.80;;;16.10;;
29728;SDS011;20055;51.498;11.960;2022-12-20T06:16:43;31.58;;;15.32;;
29728;SDS011;20055;51.498;11.960;2022-12-20T06:19:11;31.60;;;15.70;;
29728;SDS011;20055;51.498;11.960;2022-12-20T06:21:38;25.65;;;12.25;;
29728;SDS011;20055;51.498;11.960;2022-12-20T06:24:07;29.40;;;13.10;;
29728;SDS011;20055;51.498;11.960;2022-12-20T06:26:36;25.92;;;12.25;;
29728;SDS011;20055;51.498;11.960;2022-12-20T06:29:05;28.48;;;13.48;;
29728;SDS011;20055;51.498;11.960;2022-12-20T06:31:42;29.80;;;12.38;;
29728;SDS011;20055;51.498;11.960;2022-12-20T06:34:08;30.33;;;12.95;;
29728;SDS011;20055;51.498;11.960;2022-12-20T06:36:38;26.60;;;12.60;;
29728;SDS011;20055;51.498;11.960;2022-12-20T06:39:08;30.30;;;10.80;;
29728;SDS011;20055;51.498;11.960;2022-12-20T06:41:39;25.67;;;12.35;;
29728;SDS011;20055;51.498;11.960;2022-12-20T06:44:06;29.03;;;13.27;;
29728;SDS011;20055;51.498;11.960;2022-12-20T06:46:33;27.45;;;13.13;;
29728;SDS011;20055;51.498;11.960;2022-12-20T06:48:59;30.30;;;13.35;;
29728;SDS011;20055;51.498;11.960;2022-12-20T06:51:26;26.08;;;13.27;;
29728;SDS011;20055;51.498;11.960;2022-12-20T06:53:53;26.95;;;12.52;;
29728;SDS011;20055;51.498;11.960;2022-12-20T06:56:21;32.40;;;13.18;;
29728;SDS011;20055;51.498;11.960;2022-12-20T06:58:47;30.65;;;12.35;;
29728;SDS011;20055;51.498;11.960;2022-12-20T07:01:15;35.50;;;15.00;;
29728;SDS011;20055;51.498;11.960;2022-12-20T07:03:41;23.77;;;13.38;;
29728;SDS011;20055;51.498;11.960;2022-12-20T07:06:08;33.40;;;14.15;;
29728;SDS011;20055;51.498;11.960;2022-12-20T07:08:34;29.55;;;14.52;;
29728;SDS011;20055;51.498;11.960;2022-12-20T07:11:04;30.27;;;14.70;;
29728;SDS011;20055;51.498;11.960;2022-12-20T07:13:31;31.13;;;14.88;;
29728;SDS011;20055;51.498;11.960;2022-12-20T07:15:58;34.53;;;16.05;;
29728;SDS011;20055;51.498;11.960;2022-12-20T07:18:25;29.02;;;14.57;;
29728;SDS011;20055;51.498;11.960;2022-12-20T07:20:51;25.42;;;13.40;;
29728;SDS011;20055;51.498;11.960;2022-12-20T07:23:18;28.95;;;13.65;;
29728;SDS011;20055;51.498;11.960;2022-12-20T07:25:54;29.63;;;12.38;;
29728;SDS011;20055;51.498;11.960;2022-12-20T07:28:21;30.38;;;13.45;;
29728;SDS011;20055;51.498;11.960;2022-12-20T07:30:48;31.90;;;14.48;;
29728;SDS011;20055;51.498;11.960;2022-12-20T07:33:15;28.52;;;13.77;;
29728;SDS011;20055;51.498;11.960;2022-12-20T07:35:41;39.70;;;16.33;;
29728;SDS011;20055;51.498;11.960;2022-12-20T07:38:10;34.70;;;15.90;;
29728;SDS011;20055;51.498;11.960;2022-12-20T07:40:40;33.92;;;14.00;;
29728;SDS011;20055;51.498;11.960;2022-12-20T07:43:07;32.45;;;15.15;;
29728;SDS011;20055;51.498;11.960;2022-12-20T07:45:34;38.03;;;15.05;;
29728;SDS011;20055;51.498;11.960;2022-12-20T07:48:03;32.15;;;12.77;;
29728;SDS011;20055;51.498;11.960;2022-12-20T07:50:30;29.80;;;13.57;;
29728;SDS011;20055;51.498;11.960;2022-12-20T07:52:57;28.05;;;13.35;;
29728;SDS011;20055;51.498;11.960;2022-12-20T07:55:24;28.70;;;13.75;;
29728;SDS011;20055;51.498;11.960;2022-12-20T07:57:52;34.08;;;13.75;;
29728;SDS011;20055;51.498;11.960;2022-12-20T08:00:22;32.72;;;14.38;;
29728;SDS011;20055;51.498;11.960;2022-12-20T08:02:53;32.80;;;14.38;;
29728;SDS011;20055;51.498;11.960;2022-12-20T08:05:21;27.90;;;14.23;;
29728;SDS011;20055;51.498;11.960;2022-12-20T08:07:48;30.63;;;14.70;;
29728;SDS011;20055;51.498;11.960;2022-12-20T08:10:15;27.27;;;13.40;;
29728;SDS011;20055;51.498;11.960;2022-12-20T08:12:44;56.67;;;16.48;;
29728;SDS011;20055;51.498;11.960;2022-12-20T08:15:12;37.13;;;14.70;;
29728;SDS011;20055;51.498;11.960;2022-12-20T08:17:39;35.97;;;15.40;;
29728;SDS011;20055;51.498;11.960;2022-12-20T08:20:05;29.38;;;14.18;;
29728;SDS011;20055;51.498;11.960;2022-12-20T08:22:33;42.47;;;14.93;;
29728;SDS011;20055;51.498;11.960;2022-12-20T08:25:00;31.35;;;14.25;;
29728;SDS011;20055;51.498;11.960;2022-12-20T08:27:26;27.73;;;13.95;;
29728;SDS011;20055;51.498;11.960;2022-12-20T08:29:53;24.27;;;12.90;;
29728;SDS011;20055;51.498;11.960;2022-12-20T08:32:19;29.77;;;13.25;;
29728;SDS011;20055;51.498;11.960;2022-12-20T08:34:45;24.75;;;12.55;;
29728;SDS011;20055;51.498;11.960;2022-12-20T08:37:15;42.88;;;13.85;;
29728;SDS011;20055;51.498;11.960;2022-12-20T08:39:42;29.25;;;14.90;;
29728;SDS011;20055;51.498;11.960;2022-12-20T08:42:08;29.73;;;12.88;;
29728;SDS011;20055;51.498;11.960;2022-12-20T08:44:35;26.85;;;12.38;;
29728;SDS011;20055;51.498;11.960;2022-12-20T08:47:02;28.23;;;12.32;;
29728;SDS011;20055;51.498;11.960;2022-12-20T08:49:28;26.70;;;12.52;;
29728;SDS011;20055;51.498;11.960;2022-12-20T08:51:55;24.10;;;12.23;;
29728;SDS011;20055;51.498;11.960;2022-12-20T08:54:22;44.42;;;14.55;;
29728;SDS011;20055;51.498;11.960;2022-12-20T08:56:48;28.48;;;13.10;;
29728;SDS011;20055;51.498;11.960;2022-12-20T08:59:15;25.55;;;13.23;;
29728;SDS011;20055;51.498;11.960;2022-12-20T09:01:42;29.77;;;12.73;;
29728;SDS011;20055;51.498;11.960;2022-12-20T09:04:11;25.73;;;12.85;;
29728;SDS011;20055;51.498;11.960;2022-12-20T09:06:39;28.70;;;13.35;;
29728;SDS011;20055;51.498;11.960;2022-12-20T09:09:05;29.17;;;14.48;;
29728;SDS011;20055;51.498;11.960;2022-12-20T09:11:32;38.05;;;14.00;;
29728;SDS011;20055;51.498;11.960;2022-12-20T09:13:59;35.72;;;14.48;;
29728;SDS011;20055;51.498;11.960;2022-12-20T09:16:27;33.72;;;15.10;;
29728;SDS011;20055;51.498;11.960;2022-12-20T09:18:55;35.88;;;13.60;;
29728;SDS011;20055;51.498;11.960;2022-12-20T09:21:22;34.85;;;13.98;;
29728;SDS011;20055;51.498;11.960;2022-12-20T09:23:49;28.77;;;13.48;;
29728;SDS011;20055;51.498;11.960;2022-12-20T09:26:17;31.50;;;13.95;;
29728;SDS011;20055;51.498;11.960;2022-12-20T09:28:44;30.88;;;13.55;;
29728;SDS011;20055;51.498;11.960;2022-12-20T09:31:12;25.45;;;12.50;;
29728;SDS011;20055;51.498;11.960;2022-12-20T09:33:39;29.27;;;13.98;;
29728;SDS011;20055;51.498;11.960;2022-12-20T09:36:05;26.08;;;13.45;;
29728;SDS011;20055;51.498;11.960;2022-12-20T09:38:32;28.88;;;13.35;;
29728;SDS011;20055;51.498;11.960;2022-12-20T09:41:00;27.90;;;13.55;;
29728;SDS011;20055;51.498;11.960;2022-12-20T09:43:29;33.53;;;14.40;;
29728;SDS011;20055;51.498;11.960;2022-12-20T09:46:00;33.08;;;14.45;;
29728;SDS011;20055;51.498;11.960;2022-12-20T09:48:28;30.50;;;12.70;;
29728;SDS011;20055;51.498;11.960;2022-12-20T09:56:23;26.00;;;12.65;;
